sensor_id;sensor_type;location;lat;lon;timestamp;P1;durP1;ratioP1;P2;durP2;ratioP2
51459;SDS011;37534;39.772;2.718;2022-09-09T00:00:38;2.65;;;2.35;;
51459;SDS011;37534;39.772;2.718;2022-09-09T00:08:07;5.30;;;2.53;;
51459;SDS011;37534;39.772;2.718;2022-09-09T00:10:43;4.85;;;2.50;;
51459;SDS011;37534;39.772;2.718;2022-09-09T00:13:22;4.07;;;2.85;;
51459;SDS011;37534;39.772;2.718;2022-09-09T00:21:34;6.78;;;2.42;;
51459;SDS011;37534;39.772;2.718;2022-09-09T00:24:16;3.70;;;2.35;;
51459;SDS011;37534;39.772;2.718;2022-09-09T00:27:06;4.47;;;2.50;;
51459;SDS011;37534;39.772;2.718;2022-09-09T00:29:41;9.32;;;2.95;;
51459;SDS011;37534;39.772;2.718;2022-09-09T00:32:17;5.10;;;2.42;;
51459;SDS011;37534;39.772;2.718;2022-09-09T00:34:49;4.85;;;2.20;;
51459;SDS011;37534;39.772;2.718;2022-09-09T00:37:20;3.38;;;1.98;;
51459;SDS011;37534;39.772;2.718;2022-09-09T00:39:47;2.28;;;1.98;;
51459;SDS011;37534;39.772;2.718;2022-09-09T00:42:23;4.13;;;2.30;;
51459;SDS011;37534;39.772;2.718;2022-09-09T00:44:53;1.85;;;1.75;;
51459;SDS011;37534;39.772;2.718;2022-09-09T01:01:30;6.35;;;2.85;;
51459;SDS011;37534;39.772;2.718;2022-09-09T01:03:56;5.85;;;2.67;;
51459;SDS011;37534;39.772;2.718;2022-09-09T01:06:35;8.63;;;2.95;;
51459;SDS011;37534;39.772;2.718;2022-09-09T01:12:07;5.90;;;2.63;;
51459;SDS011;37534;39.772;2.718;2022-09-09T01:17:11;2.05;;;1.95;;
51459;SDS011;37534;39.772;2.718;2022-09-09T01:28:16;4.47;;;2.30;;
51459;SDS011;37534;39.772;2.718;2022-09-09T01:30:47;2.17;;;1.67;;
51459;SDS011;37534;39.772;2.718;2022-09-09T01:33:14;4.97;;;2.13;;
51459;SDS011;37534;39.772;2.718;2022-09-09T01:35:48;2.78;;;1.67;;
51459;SDS011;37534;39.772;2.718;2022-09-09T01:38:15;2.38;;;2.08;;
51459;SDS011;37534;39.772;2.718;2022-09-09T01:40:42;4.18;;;1.85;;
51459;SDS011;37534;39.772;2.718;2022-09-09T01:43:09;3.45;;;2.30;;
51459;SDS011;37534;39.772;2.718;2022-09-09T01:45:35;3.40;;;1.65;;
51459;SDS011;37534;39.772;2.718;2022-09-09T01:48:02;3.55;;;1.92;;
51459;SDS011;37534;39.772;2.718;2022-09-09T01:50:28;2.65;;;1.75;;
51459;SDS011;37534;39.772;2.718;2022-09-09T01:52:54;1.73;;;1.50;;
51459;SDS011;37534;39.772;2.718;2022-09-09T01:55:30;4.38;;;2.00;;
51459;SDS011;37534;39.772;2.718;2022-09-09T02:00:37;2.90;;;1.80;;
51459;SDS011;37534;39.772;2.718;2022-09-09T02:03:13;2.78;;;1.58;;
51459;SDS011;37534;39.772;2.718;2022-09-09T02:09:00;2.33;;;1.30;;
51459;SDS011;37534;39.772;2.718;2022-09-09T02:11:29;3.53;;;1.75;;
51459;SDS011;37534;39.772;2.718;2022-09-09T02:14:06;3.42;;;1.77;;
51459;SDS011;37534;39.772;2.718;2022-09-09T02:16:38;2.15;;;1.55;;
51459;SDS011;37534;39.772;2.718;2022-09-09T02:21:49;3.00;;;1.48;;
51459;SDS011;37534;39.772;2.718;2022-09-09T02:24:16;1.95;;;1.30;;
51459;SDS011;37534;39.772;2.718;2022-09-09T02:26:42;4.22;;;1.70;;
51459;SDS011;37534;39.772;2.718;2022-09-09T02:29:13;2.60;;;1.77;;
51459;SDS011;37534;39.772;2.718;2022-09-09T02:31:43;1.88;;;1.50;;
51459;SDS011;37534;39.772;2.718;2022-09-09T02:34:11;13.15;;;2.40;;
51459;SDS011;37534;39.772;2.718;2022-09-09T02:36:39;2.80;;;1.63;;
51459;SDS011;37534;39.772;2.718;2022-09-09T02:39:07;2.47;;;1.70;;
51459;SDS011;37534;39.772;2.718;2022-09-09T02:41:37;8.93;;;2.10;;
51459;SDS011;37534;39.772;2.718;2022-09-09T02:44:09;3.22;;;1.88;;
51459;SDS011;37534;39.772;2.718;2022-09-09T02:52:02;3.38;;;2.10;;
51459;SDS011;37534;39.772;2.718;2022-09-09T02:54:32;1.60;;;1.50;;
51459;SDS011;37534;39.772;2.718;2022-09-09T02:57:11;2.83;;;2.17;;
51459;SDS011;37534;39.772;2.718;2022-09-09T02:59:52;2.90;;;2.25;;
51459;SDS011;37534;39.772;2.718;2022-09-09T03:02:21;1.65;;;1.48;;
51459;SDS011;37534;39.772;2.718;2022-09-09T03:04:47;3.00;;;2.08;;
51459;SDS011;37534;39.772;2.718;2022-09-09T03:07:16;2.20;;;1.60;;
51459;SDS011;37534;39.772;2.718;2022-09-09T03:09:43;2.90;;;1.65;;
51459;SDS011;37534;39.772;2.718;2022-09-09T03:12:09;1.70;;;1.60;;
51459;SDS011;37534;39.772;2.718;2022-09-09T03:14:36;3.33;;;2.00;;
51459;SDS011;37534;39.772;2.718;2022-09-09T03:17:03;4.32;;;2.55;;
51459;SDS011;37534;39.772;2.718;2022-09-09T03:19:30;1.60;;;1.50;;
51459;SDS011;37534;39.772;2.718;2022-09-09T03:21:56;2.67;;;1.55;;
51459;SDS011;37534;39.772;2.718;2022-09-09T03:24:23;2.22;;;1.67;;
51459;SDS011;37534;39.772;2.718;2022-09-09T03:26:49;2.17;;;1.45;;
51459;SDS011;37534;39.772;2.718;2022-09-09T03:29:15;1.65;;;1.55;;
51459;SDS011;37534;39.772;2.718;2022-09-09T03:31:42;2.70;;;1.60;;
51459;SDS011;37534;39.772;2.718;2022-09-09T03:34:08;3.42;;;1.77;;
51459;SDS011;37534;39.772;2.718;2022-09-09T03:36:34;2.55;;;2.03;;
51459;SDS011;37534;39.772;2.718;2022-09-09T03:39:00;3.00;;;1.92;;
51459;SDS011;37534;39.772;2.718;2022-09-09T03:41:26;4.20;;;1.50;;
51459;SDS011;37534;39.772;2.718;2022-09-09T03:43:55;5.75;;;1.60;;
51459;SDS011;37534;39.772;2.718;2022-09-09T03:46:21;4.40;;;2.05;;
51459;SDS011;37534;39.772;2.718;2022-09-09T03:48:48;3.35;;;1.80;;
51459;SDS011;37534;39.772;2.718;2022-09-09T03:51:14;3.50;;;1.92;;
51459;SDS011;37534;39.772;2.718;2022-09-09T03:53:40;2.60;;;2.17;;
51459;SDS011;37534;39.772;2.718;2022-09-09T03:56:06;4.30;;;2.05;;
51459;SDS011;37534;39.772;2.718;2022-09-09T03:58:33;2.38;;;1.92;;
51459;SDS011;37534;39.772;2.718;2022-09-09T04:01:00;3.72;;;2.25;;
51459;SDS011;37534;39.772;2.718;2022-09-09T04:03:30;3.90;;;3.60;;
51459;SDS011;37534;39.772;2.718;2022-09-09T04:05:57;6.50;;;3.80;;
51459;SDS011;37534;39.772;2.718;2022-09-09T04:08:24;4.55;;;3.42;;
51459;SDS011;37534;39.772;2.718;2022-09-09T04:10:51;4.88;;;2.75;;
51459;SDS011;37534;39.772;2.718;2022-09-09T04:13:17;4.97;;;2.50;;
51459;SDS011;37534;39.772;2.718;2022-09-09T04:15:49;4.40;;;2.63;;
51459;SDS011;37534;39.772;2.718;2022-09-09T04:18:16;2.88;;;2.05;;
51459;SDS011;37534;39.772;2.718;2022-09-09T04:20:41;2.75;;;2.55;;
51459;SDS011;37534;39.772;2.718;2022-09-09T04:23:08;8.40;;;3.50;;
51459;SDS011;37534;39.772;2.718;2022-09-09T04:25:34;5.28;;;2.83;;
51459;SDS011;37534;39.772;2.718;2022-09-09T04:27:59;6.72;;;2.88;;
51459;SDS011;37534;39.772;2.718;2022-09-09T04:30:25;4.47;;;2.17;;
51459;SDS011;37534;39.772;2.718;2022-09-09T04:32:52;2.92;;;2.70;;
51459;SDS011;37534;39.772;2.718;2022-09-09T04:35:17;3.92;;;2.42;;
51459;SDS011;37534;39.772;2.718;2022-09-09T04:37:45;2.40;;;2.20;;
51459;SDS011;37534;39.772;2.718;2022-09-09T04:40:10;5.07;;;2.53;;
51459;SDS011;37534;39.772;2.718;2022-09-09T04:42:36;7.43;;;2.63;;
51459;SDS011;37534;39.772;2.718;2022-09-09T04:45:02;3.08;;;2.35;;
51459;SDS011;37534;39.772;2.718;2022-09-09T04:47:28;3.22;;;2.05;;
51459;SDS011;37534;39.772;2.718;2022-09-09T04:49:54;3.65;;;2.38;;
51459;SDS011;37534;39.772;2.718;2022-09-09T04:52:20;3.33;;;2.72;;
51459;SDS011;37534;39.772;2.718;2022-09-09T04:54:46;6.47;;;2.70;;
51459;SDS011;37534;39.772;2.718;2022-09-09T04:57:11;7.28;;;2.00;;
51459;SDS011;37534;39.772;2.718;2022-09-09T04:59:37;2.35;;;1.80;;
51459;SDS011;37534;39.772;2.718;2022-09-09T05:02:04;2.17;;;1.92;;
51459;SDS011;37534;39.772;2.718;2022-09-09T05:04:30;6.72;;;2.40;;
51459;SDS011;37534;39.772;2.718;2022-09-09T05:06:56;6.55;;;1.77;;
51459;SDS011;37534;39.772;2.718;2022-09-09T05:09:21;2.33;;;1.85;;
51459;SDS011;37534;39.772;2.718;2022-09-09T05:11:47;6.13;;;2.15;;
51459;SDS011;37534;39.772;2.718;2022-09-09T05:14:14;3.85;;;2.08;;
51459;SDS011;37534;39.772;2.718;2022-09-09T05:16:40;8.40;;;1.95;;
51459;SDS011;37534;39.772;2.718;2022-09-09T05:19:06;3.58;;;1.83;;
51459;SDS011;37534;39.772;2.718;2022-09-09T05:21:33;5.40;;;2.20;;
51459;SDS011;37534;39.772;2.718;2022-09-09T05:23:59;5.63;;;2.25;;
51459;SDS011;37534;39.772;2.718;2022-09-09T05:26:25;3.63;;;1.88;;
51459;SDS011;37534;39.772;2.718;2022-09-09T05:28:51;1.98;;;1.50;;
51459;SDS011;37534;39.772;2.718;2022-09-09T05:31:17;5.18;;;2.20;;
51459;SDS011;37534;39.772;2.718;2022-09-09T05:33:44;24.02;;;3.30;;
51459;SDS011;37534;39.772;2.718;2022-09-09T05:36:14;13.10;;;3.17;;
51459;SDS011;37534;39.772;2.718;2022-09-09T05:38:41;5.72;;;2.67;;
51459;SDS011;37534;39.772;2.718;2022-09-09T05:41:08;2.30;;;1.95;;
51459;SDS011;37534;39.772;2.718;2022-09-09T05:43:35;4.55;;;2.22;;
51459;SDS011;37534;39.772;2.718;2022-09-09T05:46:02;4.35;;;2.53;;
51459;SDS011;37534;39.772;2.718;2022-09-09T05:48:40;7.82;;;2.58;;
51459;SDS011;37534;39.772;2.718;2022-09-09T05:51:12;6.80;;;2.75;;
51459;SDS011;37534;39.772;2.718;2022-09-09T05:53:42;2.40;;;2.20;;
51459;SDS011;37534;39.772;2.718;2022-09-09T05:56:15;4.32;;;2.53;;
51459;SDS011;37534;39.772;2.718;2022-09-09T05:58:43;5.57;;;3.20;;
51459;SDS011;37534;39.772;2.718;2022-09-09T06:01:10;5.07;;;3.20;;
51459;SDS011;37534;39.772;2.718;2022-09-09T06:03:39;13.38;;;2.97;;
51459;SDS011;37534;39.772;2.718;2022-09-09T06:06:07;6.53;;;2.45;;
51459;SDS011;37534;39.772;2.718;2022-09-09T06:08:35;4.07;;;2.58;;
51459;SDS011;37534;39.772;2.718;2022-09-09T06:11:04;4.78;;;3.17;;
51459;SDS011;37534;39.772;2.718;2022-09-09T06:13:38;10.80;;;3.47;;
51459;SDS011;37534;39.772;2.718;2022-09-09T06:16:07;8.43;;;3.45;;
51459;SDS011;37534;39.772;2.718;2022-09-09T06:18:38;16.90;;;4.47;;
51459;SDS011;37534;39.772;2.718;2022-09-09T06:21:05;8.02;;;3.85;;
51459;SDS011;37534;39.772;2.718;2022-09-09T06:23:34;7.97;;;4.65;;
51459;SDS011;37534;39.772;2.718;2022-09-09T06:26:01;4.70;;;3.58;;
51459;SDS011;37534;39.772;2.718;2022-09-09T06:28:35;13.32;;;3.28;;
51459;SDS011;37534;39.772;2.718;2022-09-09T06:31:02;8.13;;;2.92;;
51459;SDS011;37534;39.772;2.718;2022-09-09T06:33:33;6.40;;;3.63;;
51459;SDS011;37534;39.772;2.718;2022-09-09T06:36:00;5.28;;;3.25;;
51459;SDS011;37534;39.772;2.718;2022-09-09T06:38:28;11.20;;;3.92;;
51459;SDS011;37534;39.772;2.718;2022-09-09T06:40:54;7.40;;;4.03;;
51459;SDS011;37534;39.772;2.718;2022-09-09T06:43:22;16.77;;;3.90;;
51459;SDS011;37534;39.772;2.718;2022-09-09T06:45:53;17.45;;;3.58;;
51459;SDS011;37534;39.772;2.718;2022-09-09T06:48:19;8.65;;;3.63;;
51459;SDS011;37534;39.772;2.718;2022-09-09T06:50:44;6.60;;;3.13;;
51459;SDS011;37534;39.772;2.718;2022-09-09T06:53:10;5.95;;;3.35;;
51459;SDS011;37534;39.772;2.718;2022-09-09T06:55:35;7.82;;;2.92;;
51459;SDS011;37534;39.772;2.718;2022-09-09T06:58:01;4.47;;;2.70;;
51459;SDS011;37534;39.772;2.718;2022-09-09T07:00:27;8.88;;;3.55;;
51459;SDS011;37534;39.772;2.718;2022-09-09T07:02:53;6.53;;;3.47;;
51459;SDS011;37534;39.772;2.718;2022-09-09T07:05:19;12.77;;;3.63;;
51459;SDS011;37534;39.772;2.718;2022-09-09T07:07:44;5.20;;;2.42;;
51459;SDS011;37534;39.772;2.718;2022-09-09T07:10:11;4.40;;;3.10;;
51459;SDS011;37534;39.772;2.718;2022-09-09T07:12:37;13.85;;;4.07;;
51459;SDS011;37534;39.772;2.718;2022-09-09T07:15:02;20.80;;;3.97;;
51459;SDS011;37534;39.772;2.718;2022-09-09T07:17:29;11.25;;;3.88;;
51459;SDS011;37534;39.772;2.718;2022-09-09T07:19:54;8.73;;;3.97;;
51459;SDS011;37534;39.772;2.718;2022-09-09T07:22:19;6.78;;;3.53;;
51459;SDS011;37534;39.772;2.718;2022-09-09T07:24:45;9.38;;;3.80;;
51459;SDS011;37534;39.772;2.718;2022-09-09T07:27:10;6.55;;;3.00;;
51459;SDS011;37534;39.772;2.718;2022-09-09T07:29:36;7.97;;;2.35;;
51459;SDS011;37534;39.772;2.718;2022-09-09T07:32:02;5.43;;;2.33;;
51459;SDS011;37534;39.772;2.718;2022-09-09T07:34:29;5.28;;;2.97;;
51459;SDS011;37534;39.772;2.718;2022-09-09T07:36:55;4.93;;;2.22;;
51459;SDS011;37534;39.772;2.718;2022-09-09T07:39:22;1.77;;;1.67;;
51459;SDS011;37534;39.772;2.718;2022-09-09T07:41:48;4.90;;;2.10;;
51459;SDS011;37534;39.772;2.718;2022-09-09T07:44:15;4.20;;;1.77;;
51459;SDS011;37534;39.772;2.718;2022-09-09T07:46:46;3.42;;;1.65;;
51459;SDS011;37534;39.772;2.718;2022-09-09T07:49:12;4.07;;;1.90;;
51459;SDS011;37534;39.772;2.718;2022-09-09T07:51:40;3.35;;;1.23;;
51459;SDS011;37534;39.772;2.718;2022-09-09T07:57:11;5.45;;;1.10;;
51459;SDS011;37534;39.772;2.718;2022-09-09T07:59:37;4.85;;;1.25;;
51459;SDS011;37534;39.772;2.718;2022-09-09T08:02:03;2.70;;;1.10;;
51459;SDS011;37534;39.772;2.718;2022-09-09T08:04:29;2.25;;;1.27;;
51459;SDS011;37534;39.772;2.718;2022-09-09T08:06:59;3.63;;;1.45;;
51459;SDS011;37534;39.772;2.718;2022-09-09T08:09:26;1.77;;;1.40;;
51459;SDS011;37534;39.772;2.718;2022-09-09T08:11:54;6.70;;;1.33;;
51459;SDS011;37534;39.772;2.718;2022-09-09T08:14:21;2.58;;;1.30;;
51459;SDS011;37534;39.772;2.718;2022-09-09T08:16:48;3.15;;;1.42;;
51459;SDS011;37534;39.772;2.718;2022-09-09T08:19:15;2.05;;;1.83;;
51459;SDS011;37534;39.772;2.718;2022-09-09T08:21:41;5.20;;;2.08;;
51459;SDS011;37534;39.772;2.718;2022-09-09T08:24:08;1.75;;;1.35;;
51459;SDS011;37534;39.772;2.718;2022-09-09T08:26:36;3.75;;;1.48;;
51459;SDS011;37534;39.772;2.718;2022-09-09T08:29:05;1.98;;;1.10;;
51459;SDS011;37534;39.772;2.718;2022-09-09T08:33:59;4.68;;;1.80;;
51459;SDS011;37534;39.772;2.718;2022-09-09T08:36:28;8.80;;;1.48;;
51459;SDS011;37534;39.772;2.718;2022-09-09T08:38:57;7.82;;;1.77;;
51459;SDS011;37534;39.772;2.718;2022-09-09T08:43:48;7.22;;;1.58;;
51459;SDS011;37534;39.772;2.718;2022-09-09T08:46:25;4.65;;;1.50;;
51459;SDS011;37534;39.772;2.718;2022-09-09T08:49:05;2.30;;;1.45;;
51459;SDS011;37534;39.772;2.718;2022-09-09T08:51:44;6.88;;;1.25;;
51459;SDS011;37534;39.772;2.718;2022-09-09T08:54:10;4.03;;;1.45;;
51459;SDS011;37534;39.772;2.718;2022-09-09T08:56:36;3.88;;;1.48;;
51459;SDS011;37534;39.772;2.718;2022-09-09T08:59:02;4.05;;;1.63;;
51459;SDS011;37534;39.772;2.718;2022-09-09T09:05:06;2.13;;;1.08;;
51459;SDS011;37534;39.772;2.718;2022-09-09T09:10:24;2.25;;;1.20;;
51459;SDS011;37534;39.772;2.718;2022-09-09T09:13:14;1.60;;;1.20;;
51459;SDS011;37534;39.772;2.718;2022-09-09T09:15:42;2.53;;;1.83;;
51459;SDS011;37534;39.772;2.718;2022-09-09T09:18:12;4.15;;;1.50;;
51459;SDS011;37534;39.772;2.718;2022-09-09T09:20:42;2.95;;;1.30;;
51459;SDS011;37534;39.772;2.718;2022-09-09T09:23:15;4.90;;;1.58;;
51459;SDS011;37534;39.772;2.718;2022-09-09T09:25:50;11.20;;;2.13;;
51459;SDS011;37534;39.772;2.718;2022-09-09T09:31:03;10.02;;;1.85;;
51459;SDS011;37534;39.772;2.718;2022-09-09T09:33:48;1.70;;;1.13;;
51459;SDS011;37534;39.772;2.718;2022-09-09T09:36:15;2.30;;;1.10;;
51459;SDS011;37534;39.772;2.718;2022-09-09T09:38:58;3.60;;;1.15;;
51459;SDS011;37534;39.772;2.718;2022-09-09T09:41:41;6.43;;;1.65;;
51459;SDS011;37534;39.772;2.718;2022-09-09T09:44:27;3.20;;;1.42;;
51459;SDS011;37534;39.772;2.718;2022-09-09T09:47:08;1.73;;;1.33;;
51459;SDS011;37534;39.772;2.718;2022-09-09T09:49:39;2.65;;;1.38;;
51459;SDS011;37534;39.772;2.718;2022-09-09T09:52:05;1.65;;;0.82;;
51459;SDS011;37534;39.772;2.718;2022-09-09T09:54:33;2.58;;;1.27;;
51459;SDS011;37534;39.772;2.718;2022-09-09T09:57:12;3.42;;;1.45;;
51459;SDS011;37534;39.772;2.718;2022-09-09T09:59:40;3.22;;;1.23;;
51459;SDS011;37534;39.772;2.718;2022-09-09T10:04:38;2.85;;;1.45;;
51459;SDS011;37534;39.772;2.718;2022-09-09T10:07:10;3.05;;;1.27;;
51459;SDS011;37534;39.772;2.718;2022-09-09T10:09:53;4.88;;;1.10;;
51459;SDS011;37534;39.772;2.718;2022-09-09T10:23:10;2.53;;;1.30;;
51459;SDS011;37534;39.772;2.718;2022-09-09T10:42:52;5.93;;;1.60;;
51459;SDS011;37534;39.772;2.718;2022-09-09T10:45:26;2.88;;;1.58;;
51459;SDS011;37534;39.772;2.718;2022-09-09T10:48:22;3.80;;;1.20;;
51459;SDS011;37534;39.772;2.718;2022-09-09T10:53:39;4.13;;;1.77;;
51459;SDS011;37534;39.772;2.718;2022-09-09T10:56:13;2.80;;;1.70;;
51459;SDS011;37534;39.772;2.718;2022-09-09T11:01:25;2.78;;;1.50;;
51459;SDS011;37534;39.772;2.718;2022-09-09T11:06:29;5.07;;;1.55;;
51459;SDS011;37534;39.772;2.718;2022-09-09T11:09:01;3.28;;;1.17;;
51459;SDS011;37534;39.772;2.718;2022-09-09T11:11:33;5.30;;;2.13;;
51459;SDS011;37534;39.772;2.718;2022-09-09T11:14:19;2.17;;;1.30;;
51459;SDS011;37534;39.772;2.718;2022-09-09T11:17:04;4.57;;;0.85;;
51459;SDS011;37534;39.772;2.718;2022-09-09T11:19:36;2.83;;;1.63;;
51459;SDS011;37534;39.772;2.718;2022-09-09T11:36:07;3.13;;;1.35;;
51459;SDS011;37534;39.772;2.718;2022-09-09T11:38:50;2.28;;;1.40;;
51459;SDS011;37534;39.772;2.718;2022-09-09T11:41:17;5.88;;;1.50;;
51459;SDS011;37534;39.772;2.718;2022-09-09T11:43:50;2.83;;;1.42;;
51459;SDS011;37534;39.772;2.718;2022-09-09T11:46:17;5.07;;;1.88;;
51459;SDS011;37534;39.772;2.718;2022-09-09T11:49:00;4.82;;;1.75;;
51459;SDS011;37534;39.772;2.718;2022-09-09T11:51:28;2.90;;;1.08;;
51459;SDS011;37534;39.772;2.718;2022-09-09T11:53:56;3.40;;;1.15;;
51459;SDS011;37534;39.772;2.718;2022-09-09T11:56:45;5.17;;;1.07;;
51459;SDS011;37534;39.772;2.718;2022-09-09T12:02:48;2.03;;;1.13;;
51459;SDS011;37534;39.772;2.718;2022-09-09T12:04:50;2.30;;;1.00;;
51459;SDS011;37534;39.772;2.718;2022-09-09T12:10:04;5.90;;;1.80;;
51459;SDS011;37534;39.772;2.718;2022-09-09T12:12:45;4.20;;;1.23;;
51459;SDS011;37534;39.772;2.718;2022-09-09T12:17:58;3.33;;;1.58;;
51459;SDS011;37534;39.772;2.718;2022-09-09T12:20:30;5.32;;;1.60;;
51459;SDS011;37534;39.772;2.718;2022-09-09T12:31:14;6.70;;;1.70;;
51459;SDS011;37534;39.772;2.718;2022-09-09T12:34:09;2.40;;;1.40;;
51459;SDS011;37534;39.772;2.718;2022-09-09T12:36:38;1.80;;;1.13;;
51459;SDS011;37534;39.772;2.718;2022-09-09T12:39:15;2.35;;;1.30;;
51459;SDS011;37534;39.772;2.718;2022-09-09T12:42:14;2.55;;;1.25;;
51459;SDS011;37534;39.772;2.718;2022-09-09T12:44:50;1.35;;;1.13;;
51459;SDS011;37534;39.772;2.718;2022-09-09T12:47:20;3.90;;;1.20;;
51459;SDS011;37534;39.772;2.718;2022-09-09T12:50:50;7.80;;;1.30;;
51459;SDS011;37534;39.772;2.718;2022-09-09T12:52:58;5.18;;;1.33;;
51459;SDS011;37534;39.772;2.718;2022-09-09T12:55:34;2.57;;;1.40;;
51459;SDS011;37534;39.772;2.718;2022-09-09T12:58:03;1.20;;;0.88;;
51459;SDS011;37534;39.772;2.718;2022-09-09T13:00:31;1.75;;;1.10;;
51459;SDS011;37534;39.772;2.718;2022-09-09T13:03:01;2.15;;;1.10;;
51459;SDS011;37534;39.772;2.718;2022-09-09T13:05:39;3.22;;;1.60;;
51459;SDS011;37534;39.772;2.718;2022-09-09T13:08:09;9.07;;;1.50;;
51459;SDS011;37534;39.772;2.718;2022-09-09T13:10:44;1.42;;;1.10;;
51459;SDS011;37534;39.772;2.718;2022-09-09T13:13:20;3.90;;;1.08;;
51459;SDS011;37534;39.772;2.718;2022-09-09T13:15:49;2.28;;;1.02;;
51459;SDS011;37534;39.772;2.718;2022-09-09T13:18:17;2.88;;;1.00;;
51459;SDS011;37534;39.772;2.718;2022-09-09T13:20:49;2.38;;;1.20;;
51459;SDS011;37534;39.772;2.718;2022-09-09T13:23:16;3.33;;;1.25;;
51459;SDS011;37534;39.772;2.718;2022-09-09T13:25:55;4.70;;;1.03;;
51459;SDS011;37534;39.772;2.718;2022-09-09T13:28:29;1.42;;;1.13;;
51459;SDS011;37534;39.772;2.718;2022-09-09T13:30:59;5.70;;;1.20;;
51459;SDS011;37534;39.772;2.718;2022-09-09T13:38:31;4.53;;;1.38;;
51459;SDS011;37534;39.772;2.718;2022-09-09T13:43:38;1.92;;;1.20;;
51459;SDS011;37534;39.772;2.718;2022-09-09T13:49:00;3.70;;;1.02;;
51459;SDS011;37534;39.772;2.718;2022-09-09T13:51:29;3.47;;;1.30;;
51459;SDS011;37534;39.772;2.718;2022-09-09T13:54:05;3.70;;;1.45;;
51459;SDS011;37534;39.772;2.718;2022-09-09T13:56:34;4.60;;;1.38;;
51459;SDS011;37534;39.772;2.718;2022-09-09T13:59:00;5.45;;;1.20;;
51459;SDS011;37534;39.772;2.718;2022-09-09T14:01:26;3.65;;;1.15;;
51459;SDS011;37534;39.772;2.718;2022-09-09T14:03:53;2.25;;;1.10;;
51459;SDS011;37534;39.772;2.718;2022-09-09T14:06:19;0.88;;;0.85;;
51459;SDS011;37534;39.772;2.718;2022-09-09T14:08:47;2.92;;;1.15;;
51459;SDS011;37534;39.772;2.718;2022-09-09T14:11:15;2.78;;;1.13;;
51459;SDS011;37534;39.772;2.718;2022-09-09T14:13:40;2.97;;;1.30;;
51459;SDS011;37534;39.772;2.718;2022-09-09T14:16:06;2.28;;;1.10;;
51459;SDS011;37534;39.772;2.718;2022-09-09T14:18:31;2.28;;;1.30;;
51459;SDS011;37534;39.772;2.718;2022-09-09T14:20:59;2.70;;;1.63;;
51459;SDS011;37534;39.772;2.718;2022-09-09T14:23:25;3.58;;;1.52;;
51459;SDS011;37534;39.772;2.718;2022-09-09T14:25:50;1.40;;;1.10;;
51459;SDS011;37534;39.772;2.718;2022-09-09T14:28:16;3.65;;;1.38;;
51459;SDS011;37534;39.772;2.718;2022-09-09T14:30:43;5.60;;;1.52;;
51459;SDS011;37534;39.772;2.718;2022-09-09T14:33:12;5.80;;;1.35;;
51459;SDS011;37534;39.772;2.718;2022-09-09T14:35:39;3.03;;;1.17;;
51459;SDS011;37534;39.772;2.718;2022-09-09T14:38:06;12.25;;;1.50;;
51459;SDS011;37534;39.772;2.718;2022-09-09T14:40:33;3.42;;;1.45;;
51459;SDS011;37534;39.772;2.718;2022-09-09T14:43:00;3.95;;;1.73;;
51459;SDS011;37534;39.772;2.718;2022-09-09T14:45:27;3.75;;;1.10;;
51459;SDS011;37534;39.772;2.718;2022-09-09T14:47:53;6.07;;;1.55;;
51459;SDS011;37534;39.772;2.718;2022-09-09T14:50:19;2.13;;;1.05;;
51459;SDS011;37534;39.772;2.718;2022-09-09T14:52:45;1.83;;;1.38;;
51459;SDS011;37534;39.772;2.718;2022-09-09T14:55:11;2.17;;;1.50;;
51459;SDS011;37534;39.772;2.718;2022-09-09T14:57:37;2.08;;;1.13;;
51459;SDS011;37534;39.772;2.718;2022-09-09T15:00:05;5.32;;;1.38;;
51459;SDS011;37534;39.772;2.718;2022-09-09T15:02:32;3.45;;;1.58;;
51459;SDS011;37534;39.772;2.718;2022-09-09T15:04:58;2.95;;;1.60;;
51459;SDS011;37534;39.772;2.718;2022-09-09T15:07:24;1.80;;;1.02;;
51459;SDS011;37534;39.772;2.718;2022-09-09T15:09:50;3.88;;;1.73;;
51459;SDS011;37534;39.772;2.718;2022-09-09T15:12:16;2.70;;;1.17;;
51459;SDS011;37534;39.772;2.718;2022-09-09T15:14:44;3.13;;;1.38;;
51459;SDS011;37534;39.772;2.718;2022-09-09T15:17:09;1.85;;;1.40;;
51459;SDS011;37534;39.772;2.718;2022-09-09T15:19:36;2.45;;;1.02;;
51459;SDS011;37534;39.772;2.718;2022-09-09T15:22:02;3.08;;;1.38;;
51459;SDS011;37534;39.772;2.718;2022-09-09T15:24:28;2.35;;;1.30;;
51459;SDS011;37534;39.772;2.718;2022-09-09T15:26:53;2.40;;;1.52;;
51459;SDS011;37534;39.772;2.718;2022-09-09T15:29:19;3.45;;;1.05;;
51459;SDS011;37534;39.772;2.718;2022-09-09T15:31:44;10.60;;;1.52;;
51459;SDS011;37534;39.772;2.718;2022-09-09T15:34:11;2.22;;;1.38;;
51459;SDS011;37534;39.772;2.718;2022-09-09T15:36:39;1.75;;;1.15;;
51459;SDS011;37534;39.772;2.718;2022-09-09T15:39:07;7.55;;;1.58;;
51459;SDS011;37534;39.772;2.718;2022-09-09T15:41:38;1.80;;;1.15;;
51459;SDS011;37534;39.772;2.718;2022-09-09T15:44:04;3.05;;;1.25;;
51459;SDS011;37534;39.772;2.718;2022-09-09T15:46:31;3.22;;;1.38;;
51459;SDS011;37534;39.772;2.718;2022-09-09T15:49:03;1.70;;;1.23;;
51459;SDS011;37534;39.772;2.718;2022-09-09T15:51:34;2.42;;;1.30;;
51459;SDS011;37534;39.772;2.718;2022-09-09T15:54:00;4.43;;;1.67;;
51459;SDS011;37534;39.772;2.718;2022-09-09T15:56:27;4.53;;;1.88;;
51459;SDS011;37534;39.772;2.718;2022-09-09T15:58:55;2.78;;;1.58;;
51459;SDS011;37534;39.772;2.718;2022-09-09T16:01:22;4.07;;;1.30;;
51459;SDS011;37534;39.772;2.718;2022-09-09T16:03:48;6.13;;;2.00;;
51459;SDS011;37534;39.772;2.718;2022-09-09T16:06:16;5.38;;;1.45;;
51459;SDS011;37534;39.772;2.718;2022-09-09T16:08:44;2.75;;;1.38;;
51459;SDS011;37534;39.772;2.718;2022-09-09T16:13:41;8.07;;;1.95;;
51459;SDS011;37534;39.772;2.718;2022-09-09T16:16:09;4.38;;;1.65;;
51459;SDS011;37534;39.772;2.718;2022-09-09T16:18:37;2.88;;;1.27;;
51459;SDS011;37534;39.772;2.718;2022-09-09T16:21:17;6.10;;;1.65;;
51459;SDS011;37534;39.772;2.718;2022-09-09T16:23:45;2.75;;;1.38;;
51459;SDS011;37534;39.772;2.718;2022-09-09T16:26:11;5.03;;;1.83;;
51459;SDS011;37534;39.772;2.718;2022-09-09T16:28:39;6.85;;;1.83;;
51459;SDS011;37534;39.772;2.718;2022-09-09T16:31:06;3.35;;;2.00;;
51459;SDS011;37534;39.772;2.718;2022-09-09T16:33:32;4.63;;;1.60;;
51459;SDS011;37534;39.772;2.718;2022-09-09T16:36:04;2.75;;;1.83;;
51459;SDS011;37534;39.772;2.718;2022-09-09T16:38:30;2.30;;;1.33;;
51459;SDS011;37534;39.772;2.718;2022-09-09T16:40:59;2.35;;;1.75;;
51459;SDS011;37534;39.772;2.718;2022-09-09T16:43:25;3.03;;;1.50;;
51459;SDS011;37534;39.772;2.718;2022-09-09T16:45:51;2.60;;;1.50;;
51459;SDS011;37534;39.772;2.718;2022-09-09T16:48:17;7.43;;;1.45;;
51459;SDS011;37534;39.772;2.718;2022-09-09T16:50:42;5.65;;;1.25;;
51459;SDS011;37534;39.772;2.718;2022-09-09T16:53:07;5.07;;;1.80;;
51459;SDS011;37534;39.772;2.718;2022-09-09T16:55:43;2.90;;;1.08;;
51459;SDS011;37534;39.772;2.718;2022-09-09T16:58:12;1.52;;;1.10;;
51459;SDS011;37534;39.772;2.718;2022-09-09T17:00:37;3.45;;;1.50;;
51459;SDS011;37534;39.772;2.718;2022-09-09T17:03:03;6.15;;;2.00;;
51459;SDS011;37534;39.772;2.718;2022-09-09T17:05:29;2.80;;;1.25;;
51459;SDS011;37534;39.772;2.718;2022-09-09T17:07:55;1.58;;;1.48;;
51459;SDS011;37534;39.772;2.718;2022-09-09T17:10:22;3.08;;;1.83;;
51459;SDS011;37534;39.772;2.718;2022-09-09T17:12:49;3.58;;;1.60;;
51459;SDS011;37534;39.772;2.718;2022-09-09T17:15:15;1.88;;;1.15;;
51459;SDS011;37534;39.772;2.718;2022-09-09T17:17:41;3.47;;;1.88;;
51459;SDS011;37534;39.772;2.718;2022-09-09T17:20:09;1.77;;;1.10;;
51459;SDS011;37534;39.772;2.718;2022-09-09T17:22:34;3.65;;;1.67;;
51459;SDS011;37534;39.772;2.718;2022-09-09T17:25:00;4.22;;;2.20;;
51459;SDS011;37534;39.772;2.718;2022-09-09T17:27:25;8.10;;;1.80;;
51459;SDS011;37534;39.772;2.718;2022-09-09T17:29:51;4.50;;;1.83;;
51459;SDS011;37534;39.772;2.718;2022-09-09T17:32:16;9.77;;;1.83;;